Главная страница
METAR-TAF:

METAR-TAF

Аэропорты :

Wings Field

Филадельфия / Blue Bell, Пенсильвания, США

широта: 40-08-15N, долгота: 075-15-54W, высота над уровнем моря: 92 м

Текущие метеонаблюдения

Эта сводка был подготовлена 32 минут назад, в 16:55 UTC
Штиль
Температура -6°C
Влажность 86%
Давление 1030 hPa
Видимость: 2.0 км
Сплошная облачность на высоте 1700 фута
небольшой снег, дымка

METAR: KLOM 181655Z AUTO 00000KT 1 1/4SM -SN BR OVC017 M06/M08 A3041 RMK AO2 T10591077

Время: 12:27 (17:27 UTC)


TAF: отсутствует

Метеонаблюдения и прогнозы для более 4000 аэропортов (сводки METAR и TAF).

Имеющиеся станции представлены на карте желтыми и красными точками.

Чтобы увидеть название станции, наведите на нее мышь.

Затем щелкните, чтобы увидеть метеонаблюдения и метеопрогнозы.

Управление картой: чтобы увеличить масштаб, щелкните зеленые кнопки с черным крестиком; чтобы уменьшить масштаб, щелкните зеленую кнопку с тире; для просмотра соседних карт щелкайте зеленые стрелки.


METAR-TAF: